Meadows Field
KBFL : rendu visible

Aérodrome :











RETROUVEZ-NOUS SUR...

 
LOGIN :

S'inscrire | Disclaimer

   EN    FR    IT 

 









Légende :    VFR   VFR Marginal   IFR   IFR Intensif   IFR Très Intensif
Visi : 
Plafond : 
>= 8 km
>= 3000ft
5 à 8 km
1000 à 3000 ft
1500m à 5 km
500 à 1000 ft
800 à 1500m
200 à 500 ft
< 800m
< 200 ft
Symboles :   Orages  Brouillard  Fortes neiges  Fortes précipitations  Vent > 20 kt






- Altitude de l'aérodrome : 510 ft
- Code IATA : BFL


KBFL - Meadows Field

DERNIER METAR :
  • 100854Z AUTO 11004KT 7SM CLR 09/07 A3022 RMK AO2 SLP233 T00890072 51003

METARs EXPIRÉS :
  • 100754Z AUTO 00000KT 7SM CLR 09/07 A3022 RMK AO2 SLP234 T00890072 401500083
  • 100654Z AUTO 14003KT 8SM CLR 09/07 A3023 RMK AO2 SLPNO T00940072

TAF KBFL
Valide du 10 à 06h jusqu'au 11 à 06h UTC


100537Z 1006/1106 11004KT P6SM SKC
FM101200 03003KT 4SM BR SKC
FM102000 10002KT 6SM HZ OVC250



MET'MAP, la Météo Aéronautique d'un coup d'oeil ! - Copyright ORBIFLY Décembre 2007 - Disclaimer

ORBIFLY MET'MAP TEAM :

Programmation & Développement : Alexandra Zaïnal
Sur une idée originale de : Baudouin d'Aumeries
Assistance à la programmation : Marc-Olivier Méhu
Soutien technique & logistique : Manuel Goepfert

Contact : metmap@orbifly.com




SOURCES & CREDITS :

   NOAA       Earth
Advisory